createdAt,value
2018-06-21T00:01:42.026Z,20.60
2018-06-21T00:04:10.405Z,20.60
2018-06-21T00:06:38.800Z,20.60
2018-06-21T00:09:08.212Z,20.60
2018-06-21T00:11:36.697Z,20.60
2018-06-21T00:14:05.126Z,20.50
2018-06-21T00:16:33.502Z,20.50
2018-06-21T00:19:01.898Z,20.50
2018-06-21T00:21:30.309Z,20.40
2018-06-21T00:23:58.686Z,20.40
2018-06-21T00:26:27.192Z,20.40
2018-06-21T00:28:55.611Z,20.30
2018-06-21T00:31:23.946Z,20.30
2018-06-21T00:33:52.356Z,20.20
2018-06-21T00:36:20.838Z,20.30
2018-06-21T00:38:49.243Z,20.30
2018-06-21T00:41:17.674Z,20.30
2018-06-21T00:43:46.069Z,20.30
2018-06-21T00:46:14.470Z,20.30
2018-06-21T00:48:42.895Z,20.30
2018-06-21T00:51:11.286Z,20.30
2018-06-21T00:53:39.847Z,20.20
2018-06-21T00:56:16.344Z,20.10
2018-06-21T00:58:45.592Z,20.00
2018-06-21T01:01:14.705Z,19.90
2018-06-21T01:03:43.751Z,19.80
2018-06-21T01:06:12.897Z,19.70
2018-06-21T01:08:41.282Z,19.60
2018-06-21T01:11:09.876Z,19.50
2018-06-21T01:13:38.385Z,19.40
2018-06-21T01:16:06.880Z,19.30
2018-06-21T01:18:35.463Z,19.20
2018-06-21T01:21:04.125Z,19.10
2018-06-21T01:23:32.521Z,19.00
2018-06-21T01:26:00.948Z,18.90
2018-06-21T01:28:29.368Z,18.90
2018-06-21T01:30:57.810Z,18.80
2018-06-21T01:33:26.198Z,18.70
2018-06-21T01:35:55.261Z,18.70
2018-06-21T01:38:23.685Z,18.60
2018-06-21T01:40:52.106Z,18.60
2018-06-21T01:43:20.464Z,18.50
2018-06-21T01:45:51.745Z,18.40
2018-06-21T01:48:20.160Z,18.40
2018-06-21T01:50:49.697Z,18.30
2018-06-21T01:53:18.101Z,18.30
2018-06-21T01:55:46.484Z,18.20
2018-06-21T01:58:14.885Z,18.20
2018-06-21T02:00:43.295Z,18.10
2018-06-21T02:03:11.660Z,18.00
2018-06-21T02:05:40.066Z,18.00
2018-06-21T02:08:08.467Z,17.90
2018-06-21T02:10:36.940Z,17.90
2018-06-21T02:13:05.320Z,17.80
2018-06-21T02:15:33.704Z,17.80
2018-06-21T02:18:02.120Z,17.70
2018-06-21T02:20:30.492Z,17.70
2018-06-21T02:22:58.888Z,17.60
2018-06-21T02:25:27.290Z,17.60
2018-06-21T02:27:55.872Z,17.60
2018-06-21T02:30:24.485Z,17.60
2018-06-21T02:32:52.905Z,17.50
2018-06-21T02:35:21.353Z,17.50
2018-06-21T02:37:49.772Z,17.50
2018-06-21T02:40:18.229Z,17.40
2018-06-21T02:42:46.705Z,17.40
2018-06-21T02:45:15.219Z,17.40
2018-06-21T02:47:44.953Z,17.40
2018-06-21T02:50:13.525Z,17.40
2018-06-21T02:52:42.306Z,17.40
2018-06-21T02:55:10.750Z,17.40
2018-06-21T02:57:39.136Z,17.40
2018-06-21T03:00:07.581Z,17.50
2018-06-21T03:02:36.008Z,17.50
2018-06-21T03:05:04.404Z,17.50
2018-06-21T03:07:32.803Z,17.50
2018-06-21T03:10:01.201Z,17.50
2018-06-21T03:12:29.589Z,17.60
2018-06-21T03:14:57.993Z,17.60
2018-06-21T03:17:26.356Z,17.70
2018-06-21T03:19:54.748Z,17.70
2018-06-21T03:22:23.165Z,17.80
2018-06-21T03:24:51.536Z,17.80
2018-06-21T03:27:19.954Z,17.80
2018-06-21T03:29:48.368Z,17.80
2018-06-21T03:32:16.749Z,17.90
2018-06-21T03:34:45.152Z,17.90
2018-06-21T03:37:13.594Z,17.90
2018-06-21T03:39:42.004Z,18.00
2018-06-21T03:42:10.397Z,18.00
2018-06-21T03:44:38.814Z,18.10
2018-06-21T03:47:08.026Z,18.20
2018-06-21T03:49:36.443Z,18.20
2018-06-21T03:52:04.905Z,18.20
2018-06-21T03:54:34.216Z,18.30
2018-06-21T03:57:02.667Z,18.40
2018-06-21T03:59:31.073Z,18.50
2018-06-21T04:01:59.470Z,18.90
2018-06-21T04:04:27.859Z,19.30
2018-06-21T04:06:56.294Z,19.70
2018-06-21T04:09:24.741Z,20.30
2018-06-21T04:11:53.148Z,20.90
2018-06-21T04:14:21.536Z,21.40
2018-06-21T04:16:50.552Z,21.50
2018-06-21T04:19:19.146Z,21.50
2018-06-21T04:21:47.525Z,22.00
2018-06-21T04:24:15.928Z,22.40
2018-06-21T04:26:44.305Z,22.50
2018-06-21T04:29:12.667Z,22.30
2018-06-21T04:31:41.296Z,22.50
2018-06-21T04:34:09.671Z,22.60
2018-06-21T04:36:38.054Z,22.50
2018-06-21T04:39:07.525Z,22.20
2018-06-21T04:41:35.944Z,22.00
2018-06-21T04:44:04.398Z,21.70
2018-06-21T04:46:32.833Z,21.40
2018-06-21T04:49:01.229Z,21.30
2018-06-21T04:51:29.604Z,21.20
2018-06-21T04:53:58.036Z,21.10
2018-06-21T04:56:27.004Z,20.90
2018-06-21T04:58:55.413Z,20.90
2018-06-21T05:01:24.772Z,20.80
2018-06-21T05:03:53.148Z,20.70
2018-06-21T05:06:21.588Z,20.80
2018-06-21T05:08:49.972Z,20.80
2018-06-21T05:11:18.410Z,20.90
2018-06-21T05:13:46.784Z,21.00
2018-06-21T05:16:15.194Z,21.00
2018-06-21T05:18:43.584Z,21.00
2018-06-21T05:21:11.988Z,20.90
2018-06-21T05:23:40.360Z,20.80
2018-06-21T05:26:08.793Z,20.60
2018-06-21T05:28:37.231Z,20.50
2018-06-21T05:31:05.620Z,20.40
2018-06-21T05:33:34.013Z,20.40
2018-06-21T05:36:02.421Z,20.40
2018-06-21T05:38:30.880Z,20.30
2018-06-21T05:40:59.287Z,20.30
2018-06-21T05:43:27.712Z,20.30
2018-06-21T05:45:56.141Z,20.20
2018-06-21T05:48:24.696Z,20.20
2018-06-21T05:50:53.056Z,20.10
2018-06-21T05:53:21.494Z,20.00
2018-06-21T05:55:49.872Z,19.70
2018-06-21T05:58:18.248Z,19.60
2018-06-21T06:00:46.659Z,19.60
2018-06-21T06:03:15.045Z,19.50
2018-06-21T06:05:43.612Z,19.40
2018-06-21T06:08:11.994Z,19.40
2018-06-21T06:10:40.412Z,19.30
2018-06-21T06:13:08.791Z,19.20
2018-06-21T06:15:37.824Z,19.20
2018-06-21T06:18:06.231Z,19.10
2018-06-21T06:20:34.616Z,19.10
2018-06-21T06:23:03.034Z,19.10
2018-06-21T06:25:31.473Z,19.00
2018-06-21T06:27:59.868Z,19.00
2018-06-21T06:30:28.447Z,19.00
2018-06-21T06:32:56.839Z,19.00
2018-06-21T06:35:29.670Z,19.00
2018-06-21T06:37:59.052Z,18.90
2018-06-21T06:40:27.465Z,18.90
2018-06-21T06:42:55.956Z,18.80
2018-06-21T06:45:24.412Z,18.70
2018-06-21T06:47:52.852Z,18.70
2018-06-21T06:50:21.319Z,18.80
2018-06-21T06:52:49.873Z,18.80
2018-06-21T06:55:18.337Z,18.80
2018-06-21T06:57:46.775Z,18.80
2018-06-21T07:00:15.225Z,18.90
2018-06-21T07:02:43.689Z,18.90
2018-06-21T07:05:12.096Z,19.00
2018-06-21T07:07:40.520Z,19.10
2018-06-21T07:10:08.916Z,19.20
2018-06-21T07:12:37.590Z,19.10
2018-06-21T07:15:06.161Z,19.20
2018-06-21T07:17:34.677Z,19.30
2018-06-21T07:20:03.177Z,19.30
2018-06-21T07:22:31.573Z,19.40
2018-06-21T07:24:59.992Z,19.40
2018-06-21T07:27:28.417Z,19.40
2018-06-21T07:29:56.845Z,19.40
2018-06-21T07:32:25.328Z,19.40
2018-06-21T07:34:53.718Z,19.50
2018-06-21T07:37:22.133Z,19.80
2018-06-21T07:39:50.678Z,20.30
2018-06-21T07:42:19.688Z,20.70
2018-06-21T07:44:48.052Z,21.10
2018-06-21T07:47:16.517Z,21.50
2018-06-21T07:49:44.925Z,21.90
2018-06-21T07:52:13.472Z,22.20
2018-06-21T07:54:41.860Z,22.40
2018-06-21T07:57:10.283Z,22.70
2018-06-21T07:59:38.703Z,22.50
2018-06-21T08:02:07.109Z,22.50
2018-06-21T08:04:35.523Z,22.20
2018-06-21T08:07:04.104Z,22.20
2018-06-21T08:09:32.534Z,22.00
2018-06-21T08:12:00.965Z,21.70
2018-06-21T08:14:29.472Z,21.20
2018-06-21T08:16:58.595Z,21.30
2018-06-21T08:19:26.963Z,21.50
2018-06-21T08:21:55.367Z,21.80
2018-06-21T08:24:23.758Z,21.90
2018-06-21T08:26:52.202Z,22.20
2018-06-21T08:29:20.637Z,22.60
2018-06-21T08:31:49.044Z,22.70
2018-06-21T08:34:17.646Z,22.60
2018-06-21T08:36:46.082Z,22.80
2018-06-21T08:39:15.296Z,22.80
2018-06-21T08:41:43.692Z,22.40
2018-06-21T08:44:12.085Z,22.70
2018-06-21T08:46:40.487Z,23.00
2018-06-21T08:49:08.922Z,23.10
2018-06-21T08:51:37.376Z,23.50
2018-06-21T08:54:05.896Z,23.80
2018-06-21T08:56:34.393Z,23.90
2018-06-21T08:59:02.788Z,23.90
2018-06-21T09:01:31.161Z,23.60
2018-06-21T09:03:59.604Z,23.80
2018-06-21T09:06:27.984Z,23.80
2018-06-21T09:08:56.365Z,23.90
2018-06-21T09:11:24.765Z,24.40
2018-06-21T09:13:53.228Z,24.70
2018-06-21T09:16:21.652Z,24.80
2018-06-21T09:18:50.064Z,25.10
2018-06-21T09:21:18.465Z,25.10
2018-06-21T09:23:46.878Z,24.90
2018-06-21T09:26:15.296Z,24.70
2018-06-21T09:28:43.677Z,24.80
2018-06-21T09:31:13.066Z,25.30
2018-06-21T09:33:41.672Z,25.60
2018-06-21T09:36:10.084Z,25.20
2018-06-21T09:38:43.676Z,24.80
2018-06-21T09:41:17.184Z,25.50
2018-06-21T09:46:33.876Z,27.30
2018-06-21T09:48:54.057Z,26.70
2018-06-21T09:51:22.476Z,27.00
2018-06-21T09:53:50.896Z,28.40
2018-06-21T09:56:19.309Z,28.10
2018-06-21T09:58:47.709Z,27.50
2018-06-21T10:01:16.238Z,27.40
2018-06-21T10:03:44.708Z,27.20
2018-06-21T10:06:13.068Z,26.70
2018-06-21T10:08:41.468Z,27.00
2018-06-21T10:11:10.013Z,27.80
2018-06-21T10:13:38.385Z,28.90
2018-06-21T10:16:06.834Z,28.50
2018-06-21T10:18:35.256Z,28.70
2018-06-21T10:21:03.637Z,29.90
2018-06-21T10:23:32.083Z,29.90
2018-06-21T10:26:00.463Z,28.40
2018-06-21T10:28:29.641Z,27.80
2018-06-21T10:30:58.058Z,26.50
2018-06-21T10:33:26.439Z,26.40
2018-06-21T10:35:55.038Z,27.20
2018-06-21T10:38:23.429Z,28.40
2018-06-21T10:40:51.833Z,29.00
2018-06-21T10:43:20.414Z,30.10
2018-06-21T10:45:48.850Z,29.00
2018-06-21T10:48:17.304Z,28.90
2018-06-21T10:50:45.701Z,28.10
2018-06-21T10:53:14.123Z,27.10
2018-06-21T10:55:42.533Z,26.50
2018-06-21T10:58:10.962Z,26.60
2018-06-21T11:00:39.350Z,27.00
2018-06-21T11:03:07.961Z,27.10
2018-06-21T11:05:36.338Z,26.10
2018-06-21T11:08:04.758Z,25.80
2018-06-21T11:10:33.165Z,25.50
2018-06-21T11:13:01.546Z,24.90
2018-06-21T11:15:29.945Z,24.60
2018-06-21T11:17:58.547Z,24.40
2018-06-21T11:20:26.952Z,24.50
2018-06-21T11:22:55.329Z,24.10
2018-06-21T11:25:23.757Z,23.70
2018-06-21T11:27:52.173Z,23.60
2018-06-21T11:30:20.585Z,23.40
2018-06-21T11:32:48.980Z,23.30
2018-06-21T11:35:17.348Z,23.10
2018-06-21T11:37:45.769Z,23.00
2018-06-21T11:40:14.150Z,23.10
2018-06-21T11:42:42.725Z,23.10
2018-06-21T11:45:11.131Z,23.10
2018-06-21T11:47:39.525Z,22.90
2018-06-21T11:50:07.927Z,22.80
2018-06-21T11:52:36.325Z,22.80
2018-06-21T11:55:04.773Z,22.60
2018-06-21T11:57:33.284Z,22.60
2018-06-21T12:00:01.682Z,22.40
2018-06-21T12:02:30.100Z,22.20
2018-06-21T12:04:58.532Z,22.10
2018-06-21T12:07:26.928Z,21.90
2018-06-21T12:09:55.491Z,21.90
2018-06-21T12:12:23.868Z,22.20
2018-06-21T12:14:52.280Z,22.40
2018-06-21T12:17:20.815Z,22.70
2018-06-21T12:19:49.191Z,22.50
2018-06-21T12:22:17.572Z,22.00
2018-06-21T12:24:45.988Z,21.80
2018-06-21T12:27:14.426Z,22.00
2018-06-21T12:29:42.821Z,22.00
2018-06-21T12:32:11.209Z,22.00
2018-06-21T12:34:39.628Z,22.00
2018-06-21T12:37:07.989Z,22.20
2018-06-21T12:39:36.373Z,22.00
2018-06-21T12:42:04.882Z,21.90
2018-06-21T12:44:33.316Z,21.80
2018-06-21T12:47:08.109Z,21.90
2018-06-21T12:49:36.537Z,22.10
2018-06-21T12:52:04.908Z,22.20
2018-06-21T12:54:33.483Z,22.10
2018-06-21T12:57:01.892Z,21.80
2018-06-21T12:59:30.264Z,21.60
2018-06-21T13:01:58.681Z,21.50
2018-06-21T13:04:27.116Z,21.50
2018-06-21T13:06:55.496Z,21.40
2018-06-21T13:09:34.886Z,21.40
2018-06-21T13:12:40.030Z,21.50
2018-06-21T13:15:08.572Z,21.60
2018-06-21T13:17:37.017Z,21.40
2018-06-21T13:20:06.557Z,21.30
2018-06-21T13:22:34.971Z,21.10
2018-06-21T13:25:03.458Z,21.20
2018-06-21T13:27:31.894Z,21.40
2018-06-21T13:30:01.247Z,21.60
2018-06-21T13:32:29.600Z,21.70
2018-06-21T13:34:58.141Z,21.40
2018-06-21T13:37:26.549Z,21.40
2018-06-21T13:39:54.960Z,21.50
2018-06-21T13:42:23.549Z,21.40
2018-06-21T13:44:52.021Z,21.30
2018-06-21T13:47:20.456Z,21.50
2018-06-21T13:49:48.842Z,21.50
2018-06-21T13:52:17.344Z,21.50
2018-06-21T13:54:45.811Z,21.70
2018-06-21T13:57:14.271Z,21.50
2018-06-21T13:59:42.695Z,21.20
2018-06-21T14:02:11.089Z,21.10
2018-06-21T14:04:39.501Z,20.90
2018-06-21T14:07:07.979Z,20.90
2018-06-21T14:09:36.401Z,20.60
2018-06-21T14:12:04.901Z,20.80
2018-06-21T14:14:33.309Z,20.90
2018-06-21T14:17:02.708Z,20.80
2018-06-21T14:19:31.120Z,20.80
2018-06-21T14:21:59.540Z,20.60
2018-06-21T14:24:28.012Z,20.60
2018-06-21T14:26:56.441Z,20.60
2018-06-21T14:29:24.976Z,20.70
2018-06-21T14:31:53.436Z,21.00
2018-06-21T14:34:21.837Z,21.00
2018-06-21T14:36:50.280Z,21.10
2018-06-21T14:39:18.687Z,21.10
2018-06-21T14:41:48.244Z,20.90
2018-06-21T14:44:16.687Z,21.00
2018-06-21T14:46:45.098Z,21.10
2018-06-21T14:49:13.581Z,21.20
2018-06-21T14:51:42.037Z,21.30
2018-06-21T14:54:10.498Z,21.30
2018-06-21T14:56:38.995Z,21.00
2018-06-21T14:59:07.384Z,21.00
2018-06-21T15:01:35.982Z,21.00
2018-06-21T15:04:04.450Z,21.10
2018-06-21T15:06:32.896Z,21.00
2018-06-21T15:09:01.345Z,20.90
2018-06-21T15:11:29.686Z,20.90
2018-06-21T15:13:58.064Z,20.80
2018-06-21T15:16:26.524Z,20.60
2018-06-21T15:18:54.968Z,20.40
2018-06-21T15:21:23.367Z,20.50
2018-06-21T15:23:51.797Z,20.50
2018-06-21T15:26:20.260Z,20.50
2018-06-21T15:28:48.680Z,20.60
2018-06-21T15:31:17.083Z,20.60
2018-06-21T15:33:45.481Z,20.70
2018-06-21T15:36:13.926Z,20.80
2018-06-21T15:38:42.356Z,20.70
2018-06-21T15:41:10.796Z,20.70
2018-06-21T15:43:39.196Z,20.60
2018-06-21T15:46:07.681Z,20.70
2018-06-21T15:48:36.113Z,20.90
2018-06-21T15:51:04.729Z,20.70
2018-06-21T15:53:33.198Z,20.60
2018-06-21T15:56:01.621Z,20.60
2018-06-21T15:58:30.066Z,20.50
2018-06-21T16:00:58.501Z,20.60
2018-06-21T16:03:26.907Z,20.70
2018-06-21T16:05:55.310Z,20.70
2018-06-21T16:08:23.729Z,20.60
2018-06-21T16:10:52.116Z,20.50
2018-06-21T16:13:20.533Z,20.30
2018-06-21T16:15:49.234Z,20.30
2018-06-21T16:18:17.619Z,20.30
2018-06-21T16:20:46.061Z,20.20
2018-06-21T16:23:15.480Z,20.10
2018-06-21T16:25:43.926Z,19.90
2018-06-21T16:28:12.343Z,19.80
2018-06-21T16:30:40.752Z,19.70
2018-06-21T16:33:10.109Z,19.70
2018-06-21T16:35:38.540Z,19.70
2018-06-21T16:38:06.944Z,19.70
2018-06-21T16:40:35.341Z,19.60
2018-06-21T16:43:03.805Z,19.60
2018-06-21T16:45:32.233Z,19.60
2018-06-21T16:48:00.738Z,19.70
2018-06-21T16:50:29.185Z,19.80
2018-06-21T16:52:57.608Z,19.80
2018-06-21T16:55:26.051Z,19.70
2018-06-21T16:57:55.361Z,19.70
2018-06-21T17:00:23.772Z,19.70
2018-06-21T17:02:52.202Z,19.70
2018-06-21T17:05:20.791Z,19.40
2018-06-21T17:07:49.181Z,19.40
2018-06-21T17:10:17.647Z,19.30
2018-06-21T17:12:46.205Z,19.20
2018-06-21T17:15:14.589Z,19.00
2018-06-21T17:17:43.002Z,19.00
2018-06-21T17:20:11.456Z,19.00
2018-06-21T17:22:39.959Z,19.00
2018-06-21T17:25:08.503Z,18.90
2018-06-21T17:27:36.897Z,18.90
2018-06-21T17:30:05.642Z,18.80
2018-06-21T17:32:34.091Z,18.80
2018-06-21T17:35:02.534Z,18.50
2018-06-21T17:37:33.869Z,18.40
2018-06-21T17:40:02.267Z,18.40
2018-06-21T17:42:30.787Z,18.20
2018-06-21T17:44:59.206Z,18.00
2018-06-21T17:47:27.606Z,17.80
2018-06-21T17:49:56.032Z,17.80
2018-06-21T17:52:24.429Z,17.70
2018-06-21T17:54:52.833Z,17.70
2018-06-21T17:57:21.273Z,17.80
2018-06-21T17:59:49.702Z,17.90
2018-06-21T18:02:18.931Z,17.80
2018-06-21T18:04:47.631Z,17.80
2018-06-21T18:07:16.070Z,17.70
2018-06-21T18:09:44.516Z,17.60
2018-06-21T18:12:13.057Z,17.50
2018-06-21T18:14:41.461Z,17.40
2018-06-21T18:17:09.880Z,17.40
2018-06-21T18:19:39.059Z,17.30
2018-06-21T18:22:09.007Z,17.30
2018-06-21T18:24:37.726Z,17.20
2018-06-21T18:27:06.960Z,17.00
2018-06-21T18:29:36.108Z,17.00
2018-06-21T18:32:05.438Z,16.90
2018-06-21T18:34:33.975Z,16.90
2018-06-21T18:37:02.743Z,16.90
2018-06-21T18:39:31.652Z,16.90
2018-06-21T18:42:00.545Z,16.90
2018-06-21T18:44:28.972Z,16.90
2018-06-21T18:46:57.666Z,17.00
2018-06-21T18:49:26.122Z,17.00
2018-06-21T18:51:54.662Z,17.00
2018-06-21T18:54:23.098Z,17.00
2018-06-21T18:56:51.561Z,17.00
2018-06-21T18:59:20.098Z,16.90
2018-06-21T19:01:48.505Z,16.80
2018-06-21T19:04:16.953Z,16.70
2018-06-21T19:06:51.583Z,16.60
2018-06-21T19:09:25.252Z,16.50
2018-06-21T19:11:55.717Z,16.40
2018-06-21T19:14:24.100Z,16.20
2018-06-21T19:16:52.562Z,15.90
2018-06-21T19:19:21.013Z,15.90
2018-06-21T19:21:49.437Z,15.80
2018-06-21T19:24:17.887Z,15.70
2018-06-21T19:26:46.341Z,15.50
2018-06-21T19:29:14.756Z,15.40
2018-06-21T19:31:44.131Z,15.30
2018-06-21T19:34:12.568Z,15.20
2018-06-21T19:36:41.072Z,15.20
2018-06-21T19:39:10.341Z,15.20
2018-06-21T19:41:39.321Z,15.20
2018-06-21T19:44:08.521Z,15.10
2018-06-21T19:46:37.001Z,15.10
2018-06-21T19:49:05.620Z,15.00
2018-06-21T19:51:34.091Z,15.00
2018-06-21T19:54:03.778Z,14.90
2018-06-21T19:56:33.209Z,14.80
2018-06-21T19:59:01.710Z,14.80
2018-06-21T20:01:30.228Z,14.70
2018-06-21T20:03:58.671Z,14.60
2018-06-21T20:06:27.135Z,14.60
2018-06-21T20:08:55.656Z,14.50
2018-06-21T20:11:29.417Z,14.50
2018-06-21T20:13:57.915Z,14.40
2018-06-21T20:16:26.589Z,14.40
2018-06-21T20:18:55.019Z,14.30
2018-06-21T20:21:23.951Z,14.30
2018-06-21T20:23:52.627Z,14.20
2018-06-21T20:26:22.662Z,14.20
2018-06-21T20:28:51.116Z,14.20
2018-06-21T20:31:19.564Z,14.20
2018-06-21T20:33:48.312Z,14.20
2018-06-21T20:36:17.005Z,14.10
2018-06-21T20:38:45.472Z,14.00
2018-06-21T20:41:13.906Z,14.00
2018-06-21T20:43:42.412Z,14.00
2018-06-21T20:46:10.841Z,13.90
2018-06-21T20:48:39.283Z,13.90
2018-06-21T20:51:07.740Z,13.80
2018-06-21T20:53:36.163Z,13.80
2018-06-21T20:56:04.673Z,13.80
2018-06-21T20:58:33.078Z,13.70
2018-06-21T21:01:01.517Z,13.70
2018-06-21T21:03:29.938Z,13.60
2018-06-21T21:05:58.355Z,13.70
2018-06-21T21:08:27.008Z,13.60
2018-06-21T21:10:55.421Z,13.60
2018-06-21T21:13:23.872Z,13.70
2018-06-21T21:15:52.357Z,13.70
2018-06-21T21:18:20.885Z,13.70
2018-06-21T21:20:49.277Z,13.70
2018-06-21T21:23:17.628Z,13.80
2018-06-21T21:25:46.025Z,13.80
2018-06-21T21:28:14.420Z,13.80
2018-06-21T21:30:42.833Z,13.80
2018-06-21T21:33:11.277Z,13.80
2018-06-21T21:35:39.917Z,13.80
2018-06-21T21:38:08.319Z,13.70
2018-06-21T21:40:36.716Z,13.60
2018-06-21T21:43:05.097Z,13.60
2018-06-21T21:45:34.282Z,13.50
2018-06-21T21:48:02.660Z,13.50
2018-06-21T21:50:31.064Z,13.40
2018-06-21T21:52:59.444Z,13.30
2018-06-21T21:55:27.838Z,13.20
2018-06-21T21:57:56.241Z,13.10
2018-06-21T22:00:43.108Z,13.00
2018-06-21T22:03:11.520Z,13.00
2018-06-21T22:05:39.946Z,12.90
2018-06-21T22:08:08.638Z,12.80
2018-06-21T22:10:37.033Z,12.80
2018-06-21T22:13:05.557Z,12.70
2018-06-21T22:15:33.896Z,12.70
2018-06-21T22:18:02.517Z,12.60
2018-06-21T22:20:30.920Z,12.60
2018-06-21T22:22:59.583Z,12.50
2018-06-21T22:25:28.436Z,12.50
2018-06-21T22:27:57.312Z,12.40
2018-06-21T22:30:25.808Z,12.40
2018-06-21T22:32:54.203Z,12.30
2018-06-21T22:35:22.564Z,12.20
2018-06-21T22:37:51.299Z,12.20
2018-06-21T22:40:19.960Z,12.20
2018-06-21T22:42:48.321Z,12.20
2018-06-21T22:45:16.684Z,12.10
2018-06-21T22:47:45.061Z,12.00
2018-06-21T22:50:13.439Z,12.00
2018-06-21T22:52:41.840Z,12.00
2018-06-21T22:55:10.217Z,11.90
2018-06-21T22:57:38.601Z,11.90
2018-06-21T23:00:07.177Z,11.80
2018-06-21T23:02:35.528Z,11.80
2018-06-21T23:05:03.946Z,11.80
2018-06-21T23:07:32.525Z,11.70
2018-06-21T23:10:00.888Z,11.70
2018-06-21T23:12:29.246Z,11.70
2018-06-21T23:14:58.426Z,11.70
2018-06-21T23:17:26.773Z,11.60
2018-06-21T23:19:56.117Z,11.60
2018-06-21T23:22:24.472Z,11.60
2018-06-21T23:24:53.364Z,11.60
2018-06-21T23:27:22.750Z,11.60
2018-06-21T23:29:51.099Z,11.60
2018-06-21T23:32:19.465Z,11.60
2018-06-21T23:34:48.049Z,11.60
2018-06-21T23:37:16.416Z,11.60
2018-06-21T23:39:45.221Z,11.60
2018-06-21T23:42:14.010Z,11.50
2018-06-21T23:44:43.286Z,11.50
2018-06-21T23:47:11.996Z,11.50
2018-06-21T23:49:40.643Z,11.50
2018-06-21T23:52:09.049Z,11.50
2018-06-21T23:54:37.402Z,11.40
2018-06-21T23:57:05.792Z,11.50
2018-06-21T23:59:34.166Z,11.50
